Time;durP1;ratioP1;P1;durP2;ratioP2;P2;SDS_P1;SDS_P2;PMS_P1;PMS_P2;Temp;Humidity;BMP_temperature;BMP_pressure;BME280_temperature;BME280_humidity;BME280_pressure;Samples;Min_cycle;Max_cycle;Signal;HPM_P1;HPM_P2
2021/10/07 00:02:03;;;;;;;7.13;2.35;;;9.80;99.90;;;;;;5075549;28;20103;-83
2021/10/07 00:04:30;;;;;;;4.57;2.50;;;9.70;99.90;;;;;;5075462;28;20036;-83
2021/10/07 00:06:56;;;;;;;4.85;2.65;;;9.50;99.90;;;;;;5069997;28;20568;-84
2021/10/07 00:09:22;;;;;;;6.22;2.50;;;9.60;99.90;;;;;;5076105;28;20567;-83
2021/10/07 00:11:48;;;;;;;5.32;2.60;;;9.70;99.90;;;;;;5074757;28;20016;-84
2021/10/07 00:14:13;;;;;;;4.60;2.50;;;9.40;99.90;;;;;;5074692;28;20032;-83
2021/10/07 00:16:39;;;;;;;5.63;2.60;;;9.90;99.90;;;;;;5074801;28;20028;-83
2021/10/07 00:19:05;;;;;;;5.03;2.50;;;9.40;99.90;;;;;;5073248;28;20020;-84
2021/10/07 00:21:31;;;;;;;4.10;2.45;;;9.30;99.90;;;;;;5073557;28;20380;-82
2021/10/07 00:24:09;;;;;;;4.22;2.47;;;9.30;99.90;;;;;;5074913;28;20554;-84
2021/10/07 00:26:46;;;;;;;3.55;2.45;;;9.40;99.90;;;;;;5074797;28;20043;-83
2021/10/07 00:31:40;;;;;;;3.50;2.65;;;9.40;99.90;;;;;;5074427;28;20036;-83
2021/10/07 00:39:06;;;;;;;5.97;2.75;;;9.30;99.90;;;;;;5075392;28;20028;-83
2021/10/07 00:41:35;;;;;;;5.03;2.65;;;9.20;99.90;;;;;;5074483;28;20036;-84
2021/10/07 00:44:09;;;;;;;6.78;2.50;;;9.30;99.90;;;;;;5074395;28;20033;-83
2021/10/07 00:46:54;;;;;;;5.13;2.95;;;9.60;99.90;;;;;;5073558;28;20055;-83
2021/10/07 00:49:22;;;;;;;5.18;2.80;;;9.20;99.90;;;;;;5072581;28;20044;-83
2021/10/07 00:51:48;;;;;;;4.15;2.88;;;9.70;99.90;;;;;;5070108;28;20091;-83
2021/10/07 00:54:16;;;;;;;4.82;2.58;;;9.40;99.90;;;;;;5076421;28;20024;-83
2021/10/07 00:56:43;;;;;;;6.10;2.50;;;9.30;99.90;;;;;;5074405;28;20279;-83
2021/10/07 00:59:10;;;;;;;5.15;2.75;;;9.30;99.90;;;;;;5074643;28;20029;-83
2021/10/07 01:01:36;;;;;;;6.25;2.83;;;9.30;99.90;;;;;;5074109;28;20483;-83
2021/10/07 01:04:02;;;;;;;4.15;3.25;;;9.30;99.90;;;;;;5071275;28;20048;-83
2021/10/07 01:06:28;;;;;;;6.22;4.25;;;9.30;99.90;;;;;;5074192;28;20031;-83
2021/10/07 01:08:54;;;;;;;5.93;3.33;;;9.70;99.90;;;;;;5075220;28;20143;-84
2021/10/07 01:11:20;;;;;;;8.25;3.10;;;9.40;99.90;;;;;;5074511;28;20112;-83
2021/10/07 01:13:46;;;;;;;6.90;3.42;;;9.50;99.90;;;;;;5074066;28;20020;-83
2021/10/07 01:16:11;;;;;;;4.57;2.97;;;9.60;99.90;;;;;;5072449;28;20559;-84
2021/10/07 01:18:37;;;;;;;4.85;2.50;;;9.70;99.90;;;;;;5071665;28;20025;-83
2021/10/07 01:21:03;;;;;;;4.22;2.20;;;9.70;99.90;;;;;;5076260;28;20063;-83
2021/10/07 01:23:29;;;;;;;4.93;2.13;;;9.50;99.90;;;;;;5073463;28;20052;-83
2021/10/07 01:25:54;;;;;;;2.75;2.33;;;9.70;99.90;;;;;;5073419;28;20025;-83
2021/10/07 01:28:20;;;;;;;4.38;2.72;;;9.70;99.90;;;;;;5071647;28;20416;-83
2021/10/07 01:30:46;;;;;;;6.15;2.42;;;9.80;99.90;;;;;;5068524;28;20377;-84
2021/10/07 01:33:12;;;;;;;5.00;2.35;;;10.30;99.90;;;;;;5076046;28;20025;-84
2021/10/07 01:35:37;;;;;;;5.13;3.10;;;9.70;99.90;;;;;;5073484;28;20079;-84
2021/10/07 01:38:04;;;;;;;6.60;3.28;;;9.60;99.90;;;;;;5074288;28;20025;-83
2021/10/07 01:40:30;;;;;;;5.07;2.63;;;9.50;99.90;;;;;;5074272;28;20112;-84
2021/10/07 01:42:56;;;;;;;4.53;3.00;;;9.50;99.90;;;;;;5069642;28;20075;-83
2021/10/07 01:45:22;;;;;;;4.63;3.13;;;9.40;99.90;;;;;;5074565;28;20024;-83
2021/10/07 01:47:48;;;;;;;5.20;3.42;;;9.40;99.90;;;;;;5073181;28;20431;-83
2021/10/07 01:50:15;;;;;;;6.10;3.40;;;9.40;99.90;;;;;;5073910;28;20028;-83
2021/10/07 01:52:41;;;;;;;4.57;3.22;;;9.20;99.90;;;;;;5073784;28;20468;-83
2021/10/07 01:55:10;;;;;;;3.58;2.95;;;9.20;99.90;;;;;;5071537;28;20730;-83
2021/10/07 01:57:36;;;;;;;4.47;2.75;;;9.20;99.90;;;;;;5070640;28;20025;-83
2021/10/07 02:00:03;;;;;;;5.63;2.45;;;9.00;99.90;;;;;;5075643;28;20358;-83
2021/10/07 02:02:29;;;;;;;5.03;2.67;;;9.00;99.90;;;;;;5073857;28;20572;-83
2021/10/07 02:04:55;;;;;;;4.65;2.90;;;9.00;99.90;;;;;;5071912;28;20115;-83
2021/10/07 02:07:20;;;;;;;6.10;3.10;;;9.00;99.90;;;;;;5071637;28;20020;-83
2021/10/07 02:09:46;;;;;;;4.70;3.00;;;9.00;99.90;;;;;;5069803;28;20036;-83
2021/10/07 02:12:12;;;;;;;6.05;3.05;;;9.50;99.90;;;;;;5075363;28;20052;-83
2021/10/07 02:14:38;;;;;;;7.72;3.08;;;8.90;99.90;;;;;;5073556;28;20497;-83
2021/10/07 02:17:04;;;;;;;5.07;3.00;;;8.90;99.90;;;;;;5073431;28;20032;-83
2021/10/07 02:19:29;;;;;;;5.55;3.10;;;8.90;99.90;;;;;;5073348;28;20131;-83
2021/10/07 02:21:55;;;;;;;6.28;2.78;;;8.80;99.90;;;;;;5069805;28;20130;-83
2021/10/07 02:24:21;;;;;;;5.68;2.97;;;8.90;99.90;;;;;;5075130;28;20043;-83
2021/10/07 02:26:46;;;;;;;5.35;2.63;;;8.90;99.90;;;;;;5073187;28;20017;-83
2021/10/07 02:29:12;;;;;;;3.60;2.72;;;8.90;99.90;;;;;;5073412;28;20064;-83
2021/10/07 02:31:38;;;;;;;4.70;3.30;;;8.90;99.90;;;;;;5073243;28;20057;-83
2021/10/07 02:34:03;;;;;;;6.22;3.15;;;8.60;99.90;;;;;;5071389;28;20032;-84
2021/10/07 02:36:29;;;;;;;8.25;3.38;;;8.60;99.90;;;;;;5072686;28;20032;-83
2021/10/07 02:38:55;;;;;;;5.43;3.20;;;8.70;99.90;;;;;;5073979;28;20036;-82
2021/10/07 02:41:20;;;;;;;8.02;2.90;;;8.60;99.90;;;;;;5073142;28;20025;-83
2021/10/07 02:43:46;;;;;;;9.77;2.92;;;8.60;99.90;;;;;;5071803;28;20400;-83
2021/10/07 02:46:12;;;;;;;6.15;3.45;;;8.60;99.90;;;;;;5070616;28;20089;-83
2021/10/07 02:48:39;;;;;;;7.72;3.17;;;8.70;99.90;;;;;;5073407;28;20028;-83
2021/10/07 02:51:05;;;;;;;6.55;3.50;;;8.70;99.90;;;;;;5079065;28;20393;-83
2021/10/07 02:53:32;;;;;;;6.07;2.92;;;8.80;99.90;;;;;;5076331;28;20094;-83
2021/10/07 02:55:58;;;;;;;4.82;2.97;;;8.80;99.90;;;;;;5076947;28;20106;-82
2021/10/07 02:58:24;;;;;;;4.72;3.17;;;8.80;99.90;;;;;;5076699;28;20023;-83
2021/10/07 03:00:50;;;;;;;9.60;3.42;;;8.80;99.90;;;;;;5072624;28;20400;-83
2021/10/07 03:03:15;;;;;;;7.05;3.38;;;8.70;99.90;;;;;;5078804;28;20029;-83
2021/10/07 03:05:41;;;;;;;6.35;3.10;;;8.70;99.90;;;;;;5076328;28;20037;-83
2021/10/07 03:08:07;;;;;;;6.18;2.92;;;8.80;99.90;;;;;;5076323;28;20056;-83
2021/10/07 03:10:32;;;;;;;8.75;2.80;;;8.80;99.90;;;;;;5076085;28;20107;-83
2021/10/07 03:12:58;;;;;;;7.95;3.05;;;8.90;99.90;;;;;;5073350;28;20028;-83
2021/10/07 03:15:24;;;;;;;8.13;2.85;;;8.90;99.90;;;;;;5076624;28;20047;-83
2021/10/07 03:17:49;;;;;;;7.03;3.10;;;8.90;99.90;;;;;;5077005;28;20040;-83
2021/10/07 03:20:15;;;;;;;7.22;3.33;;;8.90;99.90;;;;;;5074915;28;20377;-83
2021/10/07 03:22:41;;;;;;;5.57;3.03;;;8.90;99.90;;;;;;5074389;28;20492;-83
2021/10/07 03:25:08;;;;;;;6.85;3.70;;;8.70;99.90;;;;;;5071979;28;20040;-83
2021/10/07 03:27:33;;;;;;;4.60;2.92;;;8.60;99.90;;;;;;5074493;28;20392;-83
2021/10/07 03:29:59;;;;;;;5.95;3.22;;;8.70;99.90;;;;;;5077799;28;20028;-83
2021/10/07 03:32:25;;;;;;;6.75;2.90;;;8.90;99.90;;;;;;5075787;28;20032;-83
2021/10/07 03:34:50;;;;;;;6.22;3.05;;;9.00;99.90;;;;;;5076560;28;20027;-83
2021/10/07 03:37:17;;;;;;;5.50;3.22;;;9.10;99.90;;;;;;5074538;28;20392;-83
2021/10/07 03:39:42;;;;;;;10.45;3.50;;;9.20;99.90;;;;;;5072146;28;20120;-83
2021/10/07 03:42:09;;;;;;;6.53;3.58;;;9.30;99.90;;;;;;5077681;28;20104;-83
2021/10/07 03:44:35;;;;;;;6.10;3.90;;;9.30;99.90;;;;;;5075673;28;20066;-83
2021/10/07 03:47:01;;;;;;;8.65;4.50;;;9.40;99.90;;;;;;5076019;28;20500;-83
2021/10/07 03:49:26;;;;;;;8.32;3.90;;;9.30;99.90;;;;;;5076165;28;20032;-83
2021/10/07 03:51:52;;;;;;;7.78;3.58;;;9.20;99.90;;;;;;5070976;28;20025;-83
2021/10/07 03:54:18;;;;;;;9.00;3.95;;;9.20;99.90;;;;;;5077177;28;20453;-83
2021/10/07 03:56:43;;;;;;;6.68;3.67;;;9.30;99.90;;;;;;5075455;28;20036;-83
2021/10/07 03:59:09;;;;;;;10.07;3.97;;;9.40;99.90;;;;;;5075484;28;20356;-83
2021/10/07 04:01:35;;;;;;;6.70;4.20;;;9.50;99.90;;;;;;5074425;28;20095;-83
2021/10/07 04:04:00;;;;;;;6.72;4.00;;;9.50;99.90;;;;;;5070865;28;20082;-83
2021/10/07 04:06:26;;;;;;;9.43;4.40;;;9.50;99.90;;;;;;5075018;28;20028;-83
2021/10/07 04:08:51;;;;;;;7.32;3.78;;;9.40;99.90;;;;;;5076264;28;20029;-83
2021/10/07 04:11:17;;;;;;;6.85;3.70;;;9.30;99.90;;;;;;5075266;28;20089;-83
2021/10/07 04:13:43;;;;;;;10.77;3.40;;;9.20;99.90;;;;;;5074980;28;20032;-83
2021/10/07 04:16:08;;;;;;;11.75;3.85;;;9.20;99.90;;;;;;5073436;28;20031;-83
2021/10/07 04:18:34;;;;;;;7.75;3.65;;;9.20;99.90;;;;;;5072995;28;20032;-83
2021/10/07 04:21:00;;;;;;;7.50;3.88;;;9.20;99.90;;;;;;5076693;28;20028;-83
2021/10/07 04:23:25;;;;;;;7.80;3.35;;;9.20;99.90;;;;;;5074455;28;20040;-83
2021/10/07 04:25:51;;;;;;;12.10;3.70;;;9.30;99.90;;;;;;5075002;28;20048;-83
2021/10/07 04:28:17;;;;;;;8.70;3.67;;;9.40;99.90;;;;;;5073926;28;20028;-83
2021/10/07 04:30:43;;;;;;;9.65;4.10;;;9.40;99.90;;;;;;5071326;28;20036;-83
2021/10/07 04:33:10;;;;;;;6.47;3.55;;;9.30;99.90;;;;;;5076663;28;20376;-82
2021/10/07 04:35:37;;;;;;;7.20;3.90;;;9.40;99.90;;;;;;5074454;28;20032;-83
2021/10/07 04:38:03;;;;;;;7.88;3.20;;;9.50;99.90;;;;;;5075269;28;20111;-83
2021/10/07 04:40:29;;;;;;;6.82;3.60;;;9.60;99.90;;;;;;5073322;28;20062;-83
2021/10/07 04:42:55;;;;;;;5.28;3.13;;;9.60;99.90;;;;;;5069289;28;20048;-83
2021/10/07 04:45:21;;;;;;;9.27;3.92;;;9.60;99.90;;;;;;5076373;28;20036;-83
2021/10/07 04:47:47;;;;;;;4.97;3.47;;;9.60;99.90;;;;;;5073210;28;20024;-83
2021/10/07 04:50:13;;;;;;;8.80;3.30;;;9.70;99.90;;;;;;5074620;28;20086;-83
2021/10/07 04:52:39;;;;;;;7.72;3.22;;;9.70;99.90;;;;;;5074308;28;20452;-83
2021/10/07 04:55:05;;;;;;;8.23;3.30;;;9.60;99.90;;;;;;5071718;28;20023;-83
2021/10/07 04:57:32;;;;;;;7.45;3.60;;;9.60;99.90;;;;;;5073047;28;20107;-83
2021/10/07 04:59:58;;;;;;;5.28;3.22;;;9.40;99.90;;;;;;5076098;28;20042;-83
2021/10/07 05:02:23;;;;;;;5.03;3.00;;;9.50;99.90;;;;;;5074430;28;20050;-83
2021/10/07 05:04:49;;;;;;;7.97;3.30;;;9.50;99.90;;;;;;5073918;28;20036;-83
2021/10/07 05:07:14;;;;;;;6.25;3.17;;;9.50;99.90;;;;;;5072838;28;20020;-83
2021/10/07 05:09:40;;;;;;;8.52;3.53;;;9.50;99.90;;;;;;5070691;28;20486;-83
2021/10/07 05:12:07;;;;;;;7.70;3.28;;;9.40;99.90;;;;;;5076314;28;20069;-83
2021/10/07 05:14:32;;;;;;;7.10;3.03;;;9.40;99.90;;;;;;5073978;28;20037;-82
2021/10/07 05:16:58;;;;;;;7.32;4.20;;;9.30;99.90;;;;;;5074387;28;20163;-84
2021/10/07 05:19:23;;;;;;;12.40;6.05;;;9.30;99.90;;;;;;5072355;28;20031;-83
2021/10/07 05:21:49;;;;;;;21.05;10.65;;;9.30;99.90;;;;;;5068308;28;20046;-83
2021/10/07 05:24:15;;;;;;;16.27;8.98;;;9.30;99.90;;;;;;5075777;28;20115;-83
2021/10/07 05:26:41;;;;;;;14.35;7.35;;;9.20;99.90;;;;;;5074167;28;20114;-83
2021/10/07 05:29:06;;;;;;;14.68;7.60;;;9.20;99.90;;;;;;5074429;28;20139;-83
2021/10/07 05:31:32;;;;;;;9.65;6.45;;;9.20;99.90;;;;;;5072267;28;20032;-83
2021/10/07 05:33:58;;;;;;;13.73;7.25;;;9.10;99.90;;;;;;5069955;28;20035;-83
2021/10/07 05:36:23;;;;;;;11.48;5.38;;;9.60;99.90;;;;;;5074714;28;20021;-83
2021/10/07 05:38:49;;;;;;;13.15;6.75;;;9.20;99.90;;;;;;5074331;28;20055;-83
2021/10/07 05:41:15;;;;;;;21.90;9.43;;;9.30;99.90;;;;;;5074213;28;20043;-83
2021/10/07 05:43:40;;;;;;;20.80;10.90;;;9.10;99.90;;;;;;5073539;28;20036;-83
2021/10/07 05:46:06;;;;;;;17.92;9.85;;;9.10;99.90;;;;;;5071237;28;20027;-83
2021/10/07 05:48:33;;;;;;;13.00;5.93;;;9.10;99.90;;;;;;5072386;28;20020;-83
2021/10/07 05:50:59;;;;;;;9.85;4.80;;;9.20;99.90;;;;;;5075100;28;20023;-83
2021/10/07 05:53:25;;;;;;;14.52;5.95;;;9.20;99.90;;;;;;5074826;28;20024;-84
2021/10/07 05:55:50;;;;;;;7.90;3.60;;;9.30;99.90;;;;;;5073148;28;20032;-83
2021/10/07 05:58:16;;;;;;;9.93;5.82;;;9.30;99.90;;;;;;5071789;28;20487;-83
2021/10/07 06:00:41;;;;;;;8.00;4.10;;;9.40;99.90;;;;;;5069896;28;20064;-86
2021/10/07 06:03:09;;;;;;;24.83;9.57;;;9.50;99.90;;;;;;5072623;28;20543;-82
2021/10/07 06:05:35;;;;;;;14.18;6.55;;;9.50;99.90;;;;;;5073297;28;20029;-83
2021/10/07 06:08:00;;;;;;;8.05;3.60;;;9.40;99.90;;;;;;5073954;28;20438;-84
2021/10/07 06:10:26;;;;;;;8.57;3.35;;;9.70;99.90;;;;;;5073542;28;20077;-88
2021/10/07 06:12:52;;;;;;;6.35;3.53;;;9.50;99.90;;;;;;5069679;28;20017;-83
2021/10/07 06:15:18;;;;;;;8.05;3.53;;;9.50;99.90;;;;;;5082838;28;20078;-83
2021/10/07 06:17:44;;;;;;;8.65;3.42;;;9.60;99.90;;;;;;5073123;28;20106;-82
2021/10/07 06:22:48;;;;;;;9.73;3.90;;;9.70;99.90;;;;;;5075311;28;20051;-83
2021/10/07 06:25:15;;;;;;;6.53;3.13;;;9.80;99.90;;;;;;5075562;28;20518;-82
2021/10/07 06:27:41;;;;;;;10.07;3.08;;;10.00;99.90;;;;;;5074199;28;20024;-85
2021/10/07 06:30:07;;;;;;;9.00;3.42;;;10.10;99.90;;;;;;5079242;28;20109;-82
2021/10/07 06:32:32;;;;;;;8.85;3.75;;;10.30;99.90;;;;;;5076735;28;20028;-83
2021/10/07 06:34:58;;;;;;;9.75;2.92;;;10.40;99.90;;;;;;5076510;28;20407;-83
2021/10/07 06:37:24;;;;;;;4.53;2.60;;;10.40;99.90;;;;;;5075394;28;20035;-83
2021/10/07 06:39:49;;;;;;;6.78;2.67;;;10.60;99.90;;;;;;5072463;28;20098;-84
2021/10/07 06:42:15;;;;;;;9.32;3.63;;;10.60;99.90;;;;;;5078306;28;20028;-84
2021/10/07 06:44:40;;;;;;;9.30;2.90;;;10.80;99.90;;;;;;5076902;28;20132;-84
2021/10/07 06:47:06;;;;;;;5.20;3.03;;;10.80;99.90;;;;;;5076640;28;20094;-86
2021/10/07 06:49:32;;;;;;;7.18;3.08;;;10.70;99.90;;;;;;5076837;28;20016;-86
2021/10/07 06:51:57;;;;;;;6.95;3.17;;;10.70;99.90;;;;;;5073906;28;20021;-84
2021/10/07 06:54:23;;;;;;;6.18;2.95;;;10.80;99.90;;;;;;5078073;28;20111;-83
2021/10/07 06:56:49;;;;;;;6.07;3.45;;;10.90;99.90;;;;;;5077127;28;20024;-84
2021/10/07 06:59:14;;;;;;;8.55;3.88;;;11.00;99.90;;;;;;5076498;28;20033;-84
2021/10/07 07:01:40;;;;;;;7.43;3.40;;;11.30;99.90;;;;;;5076224;28;20028;-84
2021/10/07 07:04:05;;;;;;;7.90;3.00;;;11.50;99.90;;;;;;5074068;28;20480;-84
2021/10/07 07:06:31;;;;;;;9.02;2.63;;;12.00;99.90;;;;;;5075536;28;20442;-84
2021/10/07 07:08:57;;;;;;;6.68;2.40;;;11.50;99.90;;;;;;5077839;28;20388;-83
2021/10/07 07:11:27;;;;;;;9.80;2.90;;;11.30;99.90;;;;;;5074917;28;20036;-83
2021/10/07 07:13:54;;;;;;;6.10;2.97;;;10.90;99.90;;;;;;5076370;28;20028;-84
2021/10/07 07:16:20;;;;;;;8.57;2.63;;;10.80;99.90;;;;;;5074033;28;20035;-83
2021/10/07 07:18:46;;;;;;;8.05;2.72;;;10.90;99.90;;;;;;5071950;28;20021;-84
2021/10/07 07:21:12;;;;;;;10.85;3.65;;;11.20;99.90;;;;;;5077025;28;20041;-83
2021/10/07 07:23:37;;;;;;;8.52;3.85;;;11.40;99.90;;;;;;5076163;28;20098;-84
2021/10/07 07:26:03;;;;;;;8.50;3.58;;;11.30;99.90;;;;;;5075204;28;20082;-84
2021/10/07 07:28:29;;;;;;;6.03;3.90;;;11.80;99.90;;;;;;5076117;28;20437;-84
2021/10/07 07:30:55;;;;;;;8.98;3.60;;;11.40;99.90;;;;;;5071588;28;20029;-84
2021/10/07 07:33:24;;;;;;;10.13;4.13;;;11.50;99.90;;;;;;5076914;28;20020;-84
2021/10/07 07:35:50;;;;;;;8.77;3.70;;;11.70;99.90;;;;;;5076456;28;20066;-83
2021/10/07 07:38:15;;;;;;;8.75;3.25;;;11.70;99.90;;;;;;5076606;28;20039;-84
2021/10/07 07:40:41;;;;;;;8.85;3.65;;;11.60;99.90;;;;;;5075890;28;20024;-84
2021/10/07 07:43:07;;;;;;;8.48;3.20;;;11.50;99.90;;;;;;5073195;28;20021;-84
2021/10/07 07:45:33;;;;;;;6.63;3.05;;;11.60;99.90;;;;;;5074327;28;20036;-84
2021/10/07 07:47:58;;;;;;;3.88;2.85;;;11.80;99.90;;;;;;5077322;28;20047;-84
2021/10/07 07:50:25;;;;;;;7.65;3.08;;;12.50;99.90;;;;;;5075439;28;20033;-84
2021/10/07 07:52:52;;;;;;;8.70;3.55;;;12.40;99.90;;;;;;5075535;28;20013;-84
2021/10/07 07:55:18;;;;;;;7.03;3.00;;;12.60;99.90;;;;;;5074017;28;20028;-84
2021/10/07 07:57:44;;;;;;;6.20;3.05;;;12.30;99.90;;;;;;5072069;28;20585;-84
2021/10/07 08:00:10;;;;;;;6.32;3.20;;;12.30;99.90;;;;;;5075632;28;20024;-84
2021/10/07 08:02:35;;;;;;;6.70;3.40;;;12.70;99.90;;;;;;5075687;28;20496;-84
2021/10/07 08:05:01;;;;;;;4.45;2.63;;;12.50;99.90;;;;;;5076542;28;20075;-84
2021/10/07 08:07:27;;;;;;;9.80;2.75;;;12.80;99.90;;;;;;5075523;28;20502;-84
2021/10/07 08:09:53;;;;;;;5.75;2.40;;;13.00;99.90;;;;;;5071021;28;20032;-84
2021/10/07 08:12:19;;;;;;;4.82;2.30;;;15.00;99.90;;;;;;5083734;28;20024;-84
2021/10/07 08:14:47;;;;;;;4.15;2.53;;;19.20;99.90;;;;;;5074560;28;20025;-84
2021/10/07 08:17:14;;;;;;;5.20;2.30;;;21.90;99.90;;;;;;5075191;28;20473;-84
2021/10/07 08:19:41;;;;;;;4.32;2.25;;;23.50;99.90;;;;;;5074867;28;20031;-84
2021/10/07 08:22:07;;;;;;;11.25;3.10;;;23.70;99.90;;;;;;5072305;28;20531;-84
2021/10/07 08:24:33;;;;;;;4.95;2.50;;;24.00;99.90;;;;;;5074037;28;20477;-84
2021/10/07 08:27:03;;;;;;;7.50;2.22;;;25.60;99.90;;;;;;5076250;28;20031;-85
2021/10/07 08:29:29;;;;;;;4.72;2.25;;;24.50;99.90;;;;;;5074733;28;20027;-84
2021/10/07 08:31:55;;;;;;;6.25;2.30;;;25.90;99.90;;;;;;5074824;28;20101;-84
2021/10/07 08:34:21;;;;;;;5.65;1.95;;;27.40;99.90;;;;;;5072854;28;20052;-85
2021/10/07 08:36:46;;;;;;;9.05;2.00;;;28.50;99.90;;;;;;5070546;28;20550;-84
2021/10/07 08:39:14;;;;;;;4.47;1.70;;;28.30;99.90;;;;;;5076399;28;20060;-84
2021/10/07 08:41:45;;;;;;;3.25;1.77;;;29.80;99.90;;;;;;5074200;28;20037;-85
2021/10/07 08:44:11;;;;;;;4.43;2.22;;;31.80;99.90;;;;;;5073868;28;20519;-85
2021/10/07 08:46:37;;;;;;;3.33;1.83;;;32.10;99.90;;;;;;5074244;28;20085;-85
2021/10/07 08:49:03;;;;;;;4.13;1.77;;;31.80;99.90;;;;;;5072409;28;20170;-85
2021/10/07 08:51:29;;;;;;;4.85;1.70;;;30.60;99.90;;;;;;5074782;28;20122;-85
2021/10/07 08:53:54;;;;;;;6.15;2.03;;;29.90;99.90;;;;;;5075372;28;20501;-85
2021/10/07 08:56:20;;;;;;;6.70;1.85;;;29.20;99.90;;;;;;5074975;28;20480;-86
2021/10/07 08:58:47;;;;;;;5.03;1.90;;;31.30;99.90;;;;;;5074482;28;20033;-86
2021/10/07 09:01:37;;;;;;;5.97;1.80;;;31.30;99.90;;;;;;5073210;28;20023;-86
2021/10/07 09:04:23;;;;;;;3.80;1.70;;;30.60;99.90;;;;;;5057230;28;20036;-86
2021/10/07 09:07:10;;;;;;;5.55;1.70;;;29.40;99.90;;;;;;5070083;28;20109;-86
2021/10/07 09:09:39;;;;;;;5.03;2.00;;;32.10;99.90;;;;;;5084966;28;20035;-86
2021/10/07 09:12:08;;;;;;;3.60;1.70;;;32.20;99.90;;;;;;5073869;28;20021;-86
2021/10/07 09:14:38;;;;;;;4.55;1.65;;;33.00;99.90;;;;;;5072657;28;20028;-86
2021/10/07 09:17:07;;;;;;;3.83;1.70;;;33.10;99.90;;;;;;5072310;28;20028;-85
2021/10/07 09:19:36;;;;;;;4.30;1.80;;;32.00;99.90;;;;;;5074184;28;20044;-85
2021/10/07 09:22:33;;;;;;;3.70;1.55;;;30.90;99.90;;;;;;5070560;28;20107;-85
2021/10/07 09:25:04;;;;;;;4.80;2.17;;;31.00;99.90;;;;;;5054832;28;20086;-84
2021/10/07 09:27:34;;;;;;;4.50;1.95;;;31.40;99.90;;;;;;5073816;28;20377;-85
2021/10/07 09:30:08;;;;;;;5.32;1.75;;;31.60;99.90;;;;;;5075521;28;20037;-85
2021/10/07 09:32:40;;;;;;;5.82;2.30;;;32.60;99.90;;;;;;5072694;28;20059;-85
2021/10/07 09:35:15;;;;;;;4.45;1.80;;;32.40;99.90;;;;;;5074193;28;20028;-85
2021/10/07 09:37:43;;;;;;;5.22;1.90;;;32.40;99.90;;;;;;5073929;28;20074;-85
2021/10/07 09:40:23;;;;;;;4.60;1.90;;;32.10;99.90;;;;;;5071930;28;20093;-85
2021/10/07 09:42:52;;;;;;;5.45;1.73;;;30.90;99.90;;;;;;5069735;28;20077;-85
2021/10/07 09:45:19;;;;;;;4.40;1.63;;;32.10;99.90;;;;;;5076259;28;20040;-85
2021/10/07 09:47:47;;;;;;;3.97;1.77;;;33.80;99.90;;;;;;5073068;28;20048;-85
2021/10/07 09:50:26;;;;;;;3.97;1.77;;;35.10;99.90;;;;;;5074420;28;20032;-86
2021/10/07 09:53:12;;;;;;;5.40;1.63;;;35.30;99.90;;;;;;5072365;28;20032;-85
2021/10/07 09:55:40;;;;;;;3.08;1.73;;;34.70;99.90;;;;;;5071777;28;20059;-85
2021/10/07 09:58:12;;;;;;;2.92;1.73;;;34.70;99.90;;;;;;5075326;28;20027;-85
2021/10/07 10:00:40;;;;;;;2.65;1.52;;;33.10;99.90;;;;;;5075171;28;20117;-85
2021/10/07 10:03:08;;;;;;;5.00;1.45;;;33.90;99.90;;;;;;5078406;28;20142;-85
2021/10/07 10:05:36;;;;;;;1.80;1.27;;;34.80;99.90;;;;;;5077603;28;20040;-85
2021/10/07 10:08:06;;;;;;;4.45;1.50;;;33.80;99.90;;;;;;5077474;28;20032;-85
2021/10/07 10:10:33;;;;;;;1.75;1.35;;;35.10;99.90;;;;;;5077080;28;20115;-85
2021/10/07 10:12:59;;;;;;;4.43;1.60;;;35.60;99.90;;;;;;5073531;28;20028;-85
2021/10/07 10:15:25;;;;;;;3.03;1.30;;;36.70;99.90;;;;;;5077994;28;20078;-86
2021/10/07 10:17:51;;;;;;;3.80;1.23;;;37.00;99.90;;;;;;5077142;28;20469;-85
2021/10/07 10:20:24;;;;;;;4.32;1.40;;;38.30;99.90;;;;;;5077244;28;20389;-85
2021/10/07 10:23:00;;;;;;;2.92;1.35;;;38.00;99.30;;;;;;5077018;28;20060;-86
2021/10/07 10:25:29;;;;;;;2.65;1.30;;;37.50;99.30;;;;;;5076844;28;20098;-86
2021/10/07 10:27:59;;;;;;;3.97;1.50;;;38.70;97.10;;;;;;5073199;28;20021;-85
2021/10/07 10:30:45;;;;;;;2.75;1.30;;;39.20;97.00;;;;;;5077547;28;20501;-85
2021/10/07 10:33:29;;;;;;;3.35;1.48;;;38.60;96.70;;;;;;5078565;28;20024;-85
2021/10/07 10:35:55;;;;;;;3.42;1.42;;;38.60;97.40;;;;;;5078508;28;20472;-85
2021/10/07 10:38:22;;;;;;;2.42;1.55;;;39.80;95.90;;;;;;5076705;28;20056;-85
2021/10/07 10:40:48;;;;;;;3.30;1.42;;;40.60;94.30;;;;;;5077101;28;20047;-85
2021/10/07 10:43:16;;;;;;;2.72;1.45;;;37.50;99.90;;;;;;5075738;28;20541;-85
2021/10/07 10:46:08;;;;;;;2.65;1.30;;;37.20;95.90;;;;;;5073437;28;22418;-85
2021/10/07 10:48:48;;;;;;;2.65;1.10;;;39.30;94.70;;;;;;5087074;28;20488;-85
2021/10/07 10:51:18;;;;;;;3.33;1.17;;;39.10;94.30;;;;;;5078505;28;20021;-85
2021/10/07 10:54:02;;;;;;;3.22;1.30;;;39.80;92.90;;;;;;5076150;28;20454;-85
2021/10/07 10:56:33;;;;;;;1.77;1.10;;;38.60;94.50;;;;;;5077003;28;20024;-85
2021/10/07 10:59:20;;;;;;;2.30;1.25;;;38.20;92.80;;;;;;5076628;28;20036;-85
2021/10/07 11:02:14;;;;;;;2.13;1.05;;;35.40;96.40;;;;;;5076880;28;20032;-85
2021/10/07 11:04:51;;;;;;;1.77;1.05;;;37.40;95.80;;;;;;5076294;28;20044;-85
2021/10/07 11:07:25;;;;;;;2.08;1.08;;;38.30;93.40;;;;;;5075218;28;20395;-86
2021/10/07 11:10:07;;;;;;;2.30;1.13;;;37.60;94.70;;;;;;5055066;28;20058;-85
2021/10/07 11:12:41;;;;;;;2.42;1.15;;;38.40;95.00;;;;;;5087246;28;20398;-86
2021/10/07 11:15:09;;;;;;;2.95;1.30;;;38.00;93.60;;;;;;5076970;28;20017;-86
2021/10/07 11:17:35;;;;;;;4.35;1.25;;;39.00;93.90;;;;;;5076488;28;20025;-85
2021/10/07 11:20:01;;;;;;;2.45;1.10;;;39.30;92.50;;;;;;5076267;28;20123;-85
2021/10/07 11:22:27;;;;;;;2.35;1.05;;;34.90;91.00;;;;;;5075904;28;20138;-85
2021/10/07 11:24:55;;;;;;;2.78;1.00;;;33.30;97.20;;;;;;5071985;28;20044;-85
2021/10/07 11:27:37;;;;;;;3.08;1.20;;;28.60;99.90;;;;;;5077715;28;20020;-85
2021/10/07 11:30:09;;;;;;;3.42;1.23;;;26.10;99.90;;;;;;5075971;28;20064;-84
2021/10/07 11:32:38;;;;;;;5.90;1.27;;;24.70;99.90;;;;;;5075916;28;20016;-85
2021/10/07 11:35:10;;;;;;;4.22;1.08;;;24.30;99.90;;;;;;5075856;28;20032;-84
2021/10/07 11:38:10;;;;;;;3.15;0.95;;;24.50;99.90;;;;;;5075271;28;20437;-85
2021/10/07 11:40:44;;;;;;;2.38;1.10;;;22.90;99.90;;;;;;5030687;28;20566;-85
2021/10/07 11:43:16;;;;;;;4.97;1.30;;;22.20;99.90;;;;;;5030639;28;20029;-85
2021/10/07 11:45:48;;;;;;;2.50;1.00;;;22.10;99.90;;;;;;5030731;28;20057;-84
2021/10/07 11:48:14;;;;;;;3.95;1.70;;;21.80;99.90;;;;;;5011689;28;20022;-84
2021/10/07 11:50:41;;;;;;;4.68;1.55;;;21.40;99.90;;;;;;5028979;28;20382;-85
2021/10/07 11:53:09;;;;;;;5.18;1.98;;;21.30;99.90;;;;;;5030682;28;20033;-84
2021/10/07 11:55:39;;;;;;;3.35;1.33;;;20.70;99.90;;;;;;5033767;28;20028;-84
2021/10/07 11:58:06;;;;;;;3.50;1.17;;;20.60;99.90;;;;;;5030520;28;20025;-84
2021/10/07 12:00:41;;;;;;;1.80;1.33;;;20.40;99.90;;;;;;5030535;28;20112;-84
2021/10/07 12:03:21;;;;;;;4.55;1.50;;;20.30;99.90;;;;;;5028984;28;20156;-84
2021/10/07 12:05:53;;;;;;;3.47;1.55;;;20.80;99.90;;;;;;5030248;28;20064;-84
2021/10/07 12:08:19;;;;;;;4.07;1.60;;;20.10;99.90;;;;;;5030041;28;20026;-83
2021/10/07 12:10:56;;;;;;;3.28;1.30;;;20.30;99.90;;;;;;5029791;28;20053;-84
2021/10/07 12:13:26;;;;;;;3.13;1.40;;;22.60;99.90;;;;;;5029860;28;20025;-84
2021/10/07 12:15:57;;;;;;;10.38;2.00;;;20.70;99.90;;;;;;5030051;28;20111;-84
2021/10/07 12:18:24;;;;;;;1.40;1.00;;;20.90;99.90;;;;;;5085271;28;20380;-84
2021/10/07 12:21:06;;;;;;;4.50;1.10;;;20.40;99.90;;;;;;5073438;28;20024;-84
2021/10/07 12:23:46;;;;;;;3.15;1.20;;;19.70;99.90;;;;;;5074792;28;20093;-84
2021/10/07 12:26:12;;;;;;;2.38;1.00;;;19.60;99.90;;;;;;5074866;28;20381;-84
2021/10/07 12:28:42;;;;;;;3.15;1.10;;;19.90;99.90;;;;;;5073946;28;20066;-84
2021/10/07 12:31:08;;;;;;;1.30;1.00;;;20.30;99.90;;;;;;5071347;28;20037;-84
2021/10/07 12:33:35;;;;;;;3.00;0.95;;;19.20;99.90;;;;;;5074007;28;20017;-84
2021/10/07 12:36:06;;;;;;;3.00;1.10;;;19.60;99.90;;;;;;5075330;28;20029;-84
2021/10/07 12:38:53;;;;;;;2.50;0.90;;;20.20;99.90;;;;;;5074769;28;20056;-84
2021/10/07 12:41:40;;;;;;;5.22;0.90;;;22.30;99.90;;;;;;5075572;28;20380;-84
2021/10/07 12:44:07;;;;;;;4.25;1.50;;;21.90;99.90;;;;;;5074310;28;20452;-84
2021/10/07 12:46:45;;;;;;;3.25;1.20;;;21.50;99.90;;;;;;5074638;28;20080;-84
2021/10/07 12:49:11;;;;;;;2.58;1.00;;;20.50;99.90;;;;;;5070996;28;20077;-84
2021/10/07 12:51:36;;;;;;;1.58;1.00;;;23.10;99.90;;;;;;5072416;28;20028;-86
2021/10/07 12:54:12;;;;;;;2.30;1.30;;;23.40;99.90;;;;;;5074312;28;20032;-84
2021/10/07 12:56:43;;;;;;;1.70;1.00;;;28.50;99.90;;;;;;5072530;28;20051;-85
2021/10/07 12:59:09;;;;;;;1.52;1.00;;;26.00;99.90;;;;;;5073978;28;20442;-85
2021/10/07 13:01:45;;;;;;;1.33;1.23;;;23.70;99.90;;;;;;5074874;28;20020;-85
2021/10/07 13:04:18;;;;;;;2.30;1.23;;;23.20;99.90;;;;;;5072359;28;20033;-84
2021/10/07 13:06:45;;;;;;;4.47;1.42;;;22.80;99.90;;;;;;5070554;28;20024;-84